This is the latest recevied weather packets stored in our database for station/object DL3TR-13. If no packets are shown the sender has not sent any weather packets the latest 1 day(s).
| Time | Temp. | Humidity | Pressure | Rain* | Wind** | Luminosity | Snow |
|---|---|---|---|---|---|---|---|
| 1777978989 | 13.89° C | 83% | 1006.8 hPa | 0 mm | 1.34 m/s, 205° | 225 W/m² | - |
| 1777978390 | 13.89° C | 83% | 1006.9 hPa | 0 mm | 1.79 m/s, 254° | 202 W/m² | - |
| 1777977790 | 14.44° C | 80% | 1006.7 hPa | 0 mm | 1.79 m/s, 235° | 167 W/m² | - |
| 1777977189 | 15° C | 78% | 1006.4 hPa | 0 mm | 2.24 m/s, 217° | 206 W/m² | - |
| 1777976590 | 15.56° C | 75% | 1006.2 hPa | 0 mm | 1.79 m/s, 265° | 278 W/m² | - |
| 1777975990 | 15.56° C | 75% | 1006.3 hPa | 0 mm | 0.89 m/s, 242° | 269 W/m² | - |
| 1777975391 | 16.11° C | 74% | 1006.2 hPa | 0 mm | 0.89 m/s, 242° | 237 W/m² | - |
| 1777974791 | 15.56° C | 76% | 1006.2 hPa | 0 mm | 0.89 m/s, 218° | 323 W/m² | - |
| 1777974191 | 16.11° C | 75% | 1006.4 hPa | 0 mm | 1.34 m/s, 209° | 258 W/m² | - |
| 1777973591 | 16.67° C | 72% | 1006.5 hPa | 0 mm | 1.34 m/s, 229° | 290 W/m² | - |
| 1777972991 | 16.11° C | 71% | 1006.5 hPa | 0 mm | 1.34 m/s, 227° | 308 W/m² | - |
| 1777972391 | 16.67° C | 71% | 1006.6 hPa | 0 mm | 0.89 m/s, 259° | 287 W/m² | - |
| 1777971791 | 16.11° C | 73% | 1006.6 hPa | 0 mm | 0.89 m/s, 221° | 325 W/m² | - |
| 1777971191 | 16.11° C | 72% | 1006.6 hPa | 0 mm | 0.89 m/s, 200° | 258 W/m² | - |
| 1777970591 | 16.11° C | 68% | 1006.6 hPa | 0 mm | 0 m/s | 306 W/m² | - |
| 1777969991 | 15.56° C | 70% | 1006.6 hPa | 0 mm | 0 m/s | 323 W/m² | - |
| 1777969391 | 15.56° C | 71% | 1006.7 hPa | 0 mm | 0 m/s | 257 W/m² | - |
| 1777968791 | 15.56° C | 70% | 1006.7 hPa | 0 mm | 0 m/s | 397 W/m² | - |
| 1777968192 | 15.56° C | 70% | 1006.9 hPa | 0 mm | 0 m/s | 466 W/m² | - |
| 1777967591 | 14.44° C | 71% | 1006.9 hPa | 0 mm | 0 m/s | 404 W/m² | - |
| 1777966991 | 14.44° C | 77% | 1007.1 hPa | 0 mm | 0.45 m/s, 331° | 369 W/m² | - |
| 1777966391 | 13.89° C | 77% | 1007.1 hPa | 0 mm | 0 m/s | 202 W/m² | - |
| 1777965791 | 13.89° C | 76% | 1007.1 hPa | 0 mm | 0.45 m/s, 338° | 253 W/m² | - |
| 1777965191 | 13.33° C | 76% | 1007.2 hPa | 0 mm | 0 m/s | 227 W/m² | - |
| 1777964591 | 13.89° C | 78% | 1007.3 hPa | 0 mm | 0 m/s | 522 W/m² | - |
* Rain latest hour (hover to see other rain measurements)
** Current wind speed in m/s (hover to see current wind gust speed)